Terminal Aerodrome Forecast
Issued by NWS

Home | Current Version | Previous Version | Text Only | Print | Product List | Glossary On
Versions: 1 2 3 4 5 6 7 8 9 10 11 12 13 14
716
FTPA31 PHFO 182336
TAFHOG
TAF
PHOG 182336Z 1900/1924 04018G26KT P6SM FEW035 SCT060
     FM190500 05012KT P6SM VCSH FEW035 SCT060
     FM191200 05007KT P6SM VCSH FEW035 SCT060
     FM192000 05017G25KT P6SM FEW035 SCT060
      AMD LTD TO VIS AND WIND 1909/1916=

USA.gov is the U.S. government's official web portal to all federal, state and local government web resources and services.